createdAt,value
2022-11-09T00:00:10.561Z,99432.63
2022-11-09T00:01:12.293Z,99416.50
2022-11-09T00:02:13.956Z,99423.25
2022-11-09T00:03:19.588Z,99402.78
2022-11-09T00:04:22.148Z,99434.25
2022-11-09T00:05:24.132Z,99436.00
2022-11-09T00:06:26.958Z,99444.72
2022-11-09T00:07:31.843Z,99441.00
2022-11-09T00:08:33.528Z,99433.88
2022-11-09T00:09:35.470Z,99437.63
2022-11-09T00:10:38.535Z,99444.31
2022-11-09T00:11:40.282Z,99441.94
2022-11-09T00:12:42.044Z,99440.94
2022-11-09T00:13:44.717Z,99454.81
2022-11-09T00:14:46.291Z,99447.09
2022-11-09T00:15:48.521Z,99433.38
2022-11-09T00:16:50.060Z,99452.19
2022-11-09T00:17:51.696Z,99447.94
2022-11-09T00:18:53.968Z,99433.91
2022-11-09T00:19:55.463Z,99456.84
2022-11-09T00:20:58.368Z,99460.38
2022-11-09T00:22:00.234Z,99438.50
2022-11-09T00:23:01.902Z,99464.00
2022-11-09T00:24:03.956Z,99448.28
2022-11-09T00:25:06.425Z,99461.91
2022-11-09T00:26:10.526Z,99490.44
2022-11-09T00:27:17.380Z,99493.13
2022-11-09T00:28:19.441Z,99482.97
2022-11-09T00:29:21.203Z,99509.72
2022-11-09T00:30:23.622Z,99485.75
2022-11-09T00:31:27.834Z,99502.25
2022-11-09T00:32:30.008Z,99500.91
2022-11-09T00:33:35.327Z,99527.06
2022-11-09T00:34:36.984Z,99514.97
2022-11-09T00:35:40.890Z,99518.19
2022-11-09T00:36:42.629Z,99503.69
2022-11-09T00:37:44.295Z,99521.72
2022-11-09T00:38:51.446Z,99508.34
2022-11-09T00:39:53.006Z,99525.44
2022-11-09T00:40:54.637Z,99538.28
2022-11-09T00:41:56.226Z,99533.13
2022-11-09T00:42:57.992Z,99524.72
2022-11-09T00:43:59.740Z,99528.81
2022-11-09T00:45:03.552Z,99534.91
2022-11-09T00:46:05.569Z,99525.84
2022-11-09T00:47:07.934Z,99534.97
2022-11-09T00:48:10.732Z,99529.97
2022-11-09T00:49:12.778Z,99521.09
2022-11-09T00:50:15.608Z,99526.94
2022-11-09T00:51:17.553Z,99520.13
2022-11-09T00:52:19.069Z,99541.47
2022-11-09T00:53:22.447Z,99498.47
2022-11-09T00:54:24.703Z,99554.66
2022-11-09T00:55:27.374Z,99545.28
2022-11-09T00:56:29.958Z,99534.56
2022-11-09T00:57:33.160Z,99547.72
2022-11-09T00:58:38.958Z,99550.53
2022-11-09T00:59:40.808Z,99546.19
2022-11-09T01:00:42.840Z,99562.69
2022-11-09T01:01:46.020Z,99563.78
2022-11-09T01:02:50.146Z,99542.97
2022-11-09T01:03:51.878Z,99545.59
2022-11-09T01:04:54.098Z,99526.97
2022-11-09T01:05:59.792Z,99559.53
2022-11-09T01:07:02.195Z,99547.63
2022-11-09T01:08:05.430Z,99540.22
2022-11-09T01:09:10.241Z,99548.00
2022-11-09T01:10:12.142Z,99551.31
2022-11-09T01:11:14.583Z,99540.41
2022-11-09T01:12:21.897Z,99548.25
2022-11-09T01:13:24.143Z,99549.94
2022-11-09T01:14:27.556Z,99545.88
2022-11-09T01:15:29.363Z,99531.16
2022-11-09T01:16:31.020Z,99542.16
2022-11-09T01:17:33.377Z,99500.78
2022-11-09T01:18:35.648Z,99530.53
2022-11-09T01:19:39.960Z,99540.88
2022-11-09T01:20:46.749Z,99535.63
2022-11-09T01:21:48.226Z,99516.97
2022-11-09T01:22:50.098Z,99540.88
2022-11-09T01:23:51.788Z,99555.81
2022-11-09T01:24:53.736Z,99549.59
2022-11-09T01:26:04.474Z,99553.97
2022-11-09T01:27:06.289Z,99549.31
2022-11-09T01:28:09.431Z,99554.13
2022-11-09T01:29:11.083Z,99539.94
2022-11-09T01:30:13.818Z,99554.56
2022-11-09T01:31:18.326Z,99565.78
2022-11-09T01:32:19.978Z,99546.53
2022-11-09T01:33:22.480Z,99559.16
2022-11-09T01:34:24.184Z,99530.06
2022-11-09T01:35:26.418Z,99540.44
2022-11-09T01:36:28.405Z,99560.72
2022-11-09T01:37:31.619Z,99564.97
2022-11-09T01:38:35.224Z,99546.91
2022-11-09T01:39:37.347Z,99556.63
2022-11-09T01:40:40.421Z,99570.81
2022-11-09T01:41:42.166Z,99507.94
2022-11-09T01:42:43.817Z,99560.50
2022-11-09T01:43:47.055Z,99550.47
2022-11-09T01:44:48.695Z,99558.78
2022-11-09T01:46:12.265Z,99537.69
2022-11-09T01:47:23.806Z,99557.72
2022-11-09T01:48:59.511Z,99561.25
2022-11-09T01:50:01.572Z,99559.78
2022-11-09T01:51:09.719Z,99549.75
2022-11-09T01:52:19.906Z,99565.44
2022-11-09T01:53:25.918Z,99519.03
2022-11-09T01:54:32.097Z,99532.38
2022-11-09T01:55:34.237Z,99527.88
2022-11-09T01:56:36.579Z,99568.44
2022-11-09T01:57:43.301Z,99563.03
2022-11-09T01:58:58.555Z,99538.16
2022-11-09T02:00:13.146Z,99553.09
2022-11-09T02:01:17.676Z,99513.19
2022-11-09T02:02:19.831Z,99547.09
2022-11-09T02:03:27.988Z,99507.94
2022-11-09T02:04:35.389Z,99503.75
2022-11-09T02:05:40.022Z,99560.09
2022-11-09T02:06:41.841Z,99565.09
2022-11-09T02:07:47.209Z,99563.19
2022-11-09T02:08:49.514Z,99551.78
2022-11-09T02:10:07.117Z,99546.53
2022-11-09T02:11:21.349Z,99532.53
2022-11-09T02:12:24.667Z,99565.47
2022-11-09T02:13:28.846Z,99559.19
2022-11-09T02:14:32.766Z,99552.38
2022-11-09T02:15:35.940Z,99539.47
2022-11-09T02:16:37.818Z,99553.38
2022-11-09T02:17:40.796Z,99551.56
2022-11-09T02:18:52.650Z,99569.50
2022-11-09T02:19:57.000Z,99541.38
2022-11-09T02:20:58.897Z,99539.94
2022-11-09T02:22:01.075Z,99578.13
2022-11-09T02:23:02.784Z,99537.53
2022-11-09T02:24:04.813Z,99533.22
2022-11-09T02:25:07.815Z,99580.13
2022-11-09T02:26:13.576Z,99538.38
2022-11-09T02:27:15.549Z,99563.03
2022-11-09T02:28:17.805Z,99564.56
2022-11-09T02:29:23.745Z,99561.25
2022-11-09T02:30:26.170Z,99561.94
2022-11-09T02:31:33.842Z,99569.50
2022-11-09T02:32:36.006Z,99552.63
2022-11-09T02:33:45.607Z,99552.06
2022-11-09T02:34:47.387Z,99570.44
2022-11-09T02:35:49.374Z,99573.97
2022-11-09T02:36:52.444Z,99549.75
2022-11-09T02:37:56.086Z,99550.94
2022-11-09T02:38:58.203Z,99508.75
2022-11-09T02:40:03.971Z,99539.88
2022-11-09T02:41:07.688Z,99542.25
2022-11-09T02:42:19.904Z,99537.31
2022-11-09T02:43:24.126Z,99563.47
2022-11-09T02:44:28.290Z,99549.31
2022-11-09T02:45:30.091Z,99542.31
2022-11-09T02:46:35.310Z,99541.44
2022-11-09T02:47:37.228Z,99531.44
2022-11-09T02:48:39.541Z,99539.69
2022-11-09T02:49:41.578Z,99543.94
2022-11-09T02:50:44.720Z,99511.94
2022-11-09T02:51:46.518Z,99543.16
2022-11-09T02:52:48.187Z,99530.44
2022-11-09T02:53:49.856Z,99501.66
2022-11-09T02:54:52.665Z,99545.63
2022-11-09T02:55:54.595Z,99541.16
2022-11-09T02:56:56.153Z,99509.06
2022-11-09T02:57:58.063Z,99536.44
2022-11-09T02:58:59.900Z,99529.06
2022-11-09T03:00:02.307Z,99554.25
2022-11-09T03:01:04.905Z,99529.75
2022-11-09T03:02:06.676Z,99545.78
2022-11-09T03:03:08.354Z,99495.25
2022-11-09T03:04:10.340Z,99529.16
2022-11-09T03:05:12.096Z,99528.31
2022-11-09T03:06:14.201Z,99503.44
2022-11-09T03:07:16.308Z,99514.69
2022-11-09T03:08:19.383Z,99516.50
2022-11-09T03:09:21.364Z,99507.88
2022-11-09T03:10:24.633Z,99492.34
2022-11-09T03:11:26.229Z,99509.13
2022-11-09T03:12:31.321Z,99472.53
2022-11-09T03:13:35.393Z,99483.34
2022-11-09T03:14:37.473Z,99499.72
2022-11-09T03:15:40.882Z,99490.13
2022-11-09T03:16:50.301Z,99469.03
2022-11-09T03:17:52.520Z,99512.34
2022-11-09T03:18:54.619Z,99497.66
2022-11-09T03:19:56.456Z,99509.72
2022-11-09T03:21:03.224Z,99502.88
2022-11-09T03:22:05.164Z,99490.94
2022-11-09T03:23:07.409Z,99488.41
2022-11-09T03:24:13.248Z,99481.88
2022-11-09T03:25:15.919Z,99510.41
2022-11-09T03:26:17.789Z,99513.97
2022-11-09T03:27:19.647Z,99506.94
2022-11-09T03:28:21.377Z,99501.88
2022-11-09T03:29:26.015Z,99484.78
2022-11-09T03:30:29.289Z,99495.56
2022-11-09T03:31:31.776Z,99519.81
2022-11-09T03:32:35.116Z,99477.84
2022-11-09T03:33:38.181Z,99492.25
2022-11-09T03:34:40.342Z,99451.47
2022-11-09T03:35:44.173Z,99497.16
2022-11-09T03:36:46.050Z,99499.47
2022-11-09T03:37:48.967Z,99465.50
2022-11-09T03:38:50.663Z,99496.78
2022-11-09T03:39:52.554Z,99505.25
2022-11-09T03:40:54.300Z,99500.88
2022-11-09T03:41:56.154Z,99499.56
2022-11-09T03:43:00.523Z,99468.84
2022-11-09T03:44:02.910Z,99515.72
2022-11-09T03:45:06.461Z,99504.63
2022-11-09T03:46:08.553Z,99517.59
2022-11-09T03:47:13.667Z,99517.59
2022-11-09T03:48:15.589Z,99512.56
2022-11-09T03:49:18.481Z,99524.53
2022-11-09T03:50:20.364Z,99522.78
2022-11-09T03:51:22.413Z,99517.69
2022-11-09T03:52:24.276Z,99520.22
2022-11-09T03:53:25.982Z,99490.31
2022-11-09T03:54:27.569Z,99532.25
2022-11-09T03:55:29.667Z,99521.91
2022-11-09T03:56:31.565Z,99530.38
2022-11-09T03:57:33.441Z,99543.50
2022-11-09T03:58:36.432Z,99517.28
2022-11-09T03:59:37.986Z,99549.50
2022-11-09T04:00:41.569Z,99530.38
2022-11-09T04:01:43.322Z,99536.31
2022-11-09T04:02:45.157Z,99528.44
2022-11-09T04:03:47.742Z,99530.16
2022-11-09T04:04:50.811Z,99543.69
2022-11-09T04:05:52.765Z,99544.63
2022-11-09T04:06:54.863Z,99549.00
2022-11-09T04:07:58.888Z,99534.22
2022-11-09T04:09:00.989Z,99528.97
2022-11-09T04:10:03.765Z,99520.59
2022-11-09T04:11:05.585Z,99515.88
2022-11-09T04:12:08.445Z,99501.47
2022-11-09T04:13:10.168Z,99509.00
2022-11-09T04:14:12.067Z,99511.63
2022-11-09T04:15:14.436Z,99517.34
2022-11-09T04:16:17.631Z,99513.84
2022-11-09T04:17:20.371Z,99501.09
2022-11-09T04:18:22.149Z,99512.69
2022-11-09T04:19:24.012Z,99508.47
2022-11-09T04:20:29.388Z,99510.75
2022-11-09T04:21:33.294Z,99507.03
2022-11-09T04:22:35.887Z,99489.50
2022-11-09T04:23:38.497Z,99501.38
2022-11-09T04:24:40.173Z,99497.47
2022-11-09T04:25:44.005Z,99494.66
2022-11-09T04:26:48.329Z,99520.31
2022-11-09T04:27:56.784Z,99475.63
2022-11-09T04:28:58.419Z,99514.00
2022-11-09T04:30:00.153Z,99530.28
2022-11-09T04:31:04.166Z,99533.66
2022-11-09T04:32:06.014Z,99535.06
2022-11-09T04:33:08.036Z,99501.09
2022-11-09T04:34:09.662Z,99496.16
2022-11-09T04:35:12.278Z,99457.09
2022-11-09T04:36:14.606Z,99503.13
2022-11-09T04:37:17.270Z,99496.13
2022-11-09T04:38:21.868Z,99499.66
2022-11-09T04:39:23.656Z,99492.91
2022-11-09T04:40:26.852Z,99501.03
2022-11-09T04:41:28.514Z,99503.75
2022-11-09T04:42:31.241Z,99501.03
2022-11-09T04:43:33.056Z,99491.31
2022-11-09T04:44:36.215Z,99483.69
2022-11-09T04:45:40.057Z,99475.16
2022-11-09T04:46:43.279Z,99481.25
2022-11-09T04:47:46.492Z,99475.16
2022-11-09T04:48:51.567Z,99473.91
2022-11-09T04:49:54.890Z,99473.16
2022-11-09T04:51:05.225Z,99476.53
2022-11-09T04:52:06.990Z,99486.16
2022-11-09T04:53:11.933Z,99462.97
2022-11-09T04:54:13.997Z,99478.38
2022-11-09T04:55:15.895Z,99454.53
2022-11-09T04:56:17.404Z,99461.91
2022-11-09T04:57:20.719Z,99441.38
2022-11-09T04:58:25.178Z,99480.16
2022-11-09T04:59:26.904Z,99454.59
2022-11-09T05:00:29.273Z,99445.13
2022-11-09T05:01:32.393Z,99446.13
2022-11-09T05:02:34.011Z,99465.00
2022-11-09T05:03:35.743Z,99438.50
2022-11-09T05:04:37.458Z,99456.53
2022-11-09T05:05:47.971Z,99451.13
2022-11-09T05:06:50.417Z,99429.13
2022-11-09T05:07:53.345Z,99457.66
2022-11-09T05:08:55.720Z,99435.88
2022-11-09T05:09:57.354Z,99472.38
2022-11-09T05:11:00.103Z,99449.00
2022-11-09T05:12:03.453Z,99437.25
2022-11-09T05:13:07.990Z,99469.56
2022-11-09T05:14:10.629Z,99464.81
2022-11-09T05:15:12.265Z,99473.44
2022-11-09T05:16:14.700Z,99476.00
2022-11-09T05:17:20.396Z,99478.63
2022-11-09T05:18:22.144Z,99465.81
2022-11-09T05:19:24.004Z,99479.47
2022-11-09T05:20:25.960Z,99467.63
2022-11-09T05:21:28.300Z,99489.34
2022-11-09T05:22:49.391Z,99487.03
2022-11-09T05:24:00.522Z,99462.63
2022-11-09T05:25:02.341Z,99472.09
2022-11-09T05:26:04.948Z,99473.69
2022-11-09T05:27:08.490Z,99473.78
2022-11-09T05:28:11.186Z,99460.84
2022-11-09T05:29:14.701Z,99476.16
2022-11-09T05:30:16.672Z,99484.72
2022-11-09T05:31:19.053Z,99450.44
2022-11-09T05:32:20.661Z,99468.44
2022-11-09T05:33:22.870Z,99482.09
2022-11-09T05:34:24.939Z,99474.44
2022-11-09T05:35:26.932Z,99483.66
2022-11-09T05:36:30.985Z,99503.06
2022-11-09T05:37:32.639Z,99491.38
2022-11-09T05:38:36.285Z,99500.50
2022-11-09T05:39:40.359Z,99509.13
2022-11-09T05:40:42.494Z,99499.66
2022-11-09T05:41:47.377Z,99507.47
2022-11-09T05:42:49.029Z,99516.94
2022-11-09T05:43:52.405Z,99518.94
2022-11-09T05:44:55.583Z,99508.06
2022-11-09T05:45:58.741Z,99488.28
2022-11-09T05:47:03.045Z,99469.19
2022-11-09T05:48:05.042Z,99529.63
2022-11-09T05:49:06.972Z,99496.47
2022-11-09T05:50:11.699Z,99521.94
2022-11-09T05:51:15.061Z,99517.00
2022-11-09T05:52:16.853Z,99533.34
2022-11-09T05:53:18.595Z,99559.69
2022-11-09T05:54:20.666Z,99532.81
2022-11-09T05:55:22.678Z,99523.91
2022-11-09T05:56:25.297Z,99567.41
2022-11-09T05:57:27.619Z,99572.56
2022-11-09T05:58:29.663Z,99545.63
2022-11-09T05:59:31.424Z,99585.84
2022-11-09T06:00:33.959Z,99589.31
2022-11-09T06:01:36.366Z,99596.31
2022-11-09T06:02:38.089Z,99576.38
2022-11-09T06:03:42.196Z,99599.38
2022-11-09T06:04:44.857Z,99597.72
2022-11-09T06:05:47.635Z,99588.38
2022-11-09T06:06:49.541Z,99606.44
2022-11-09T06:07:51.428Z,99609.72
2022-11-09T06:08:53.428Z,99586.56
2022-11-09T06:09:55.242Z,99575.97
2022-11-09T06:11:02.839Z,99614.88
2022-11-09T06:12:04.819Z,99584.31
2022-11-09T06:13:07.342Z,99627.22
2022-11-09T06:14:09.293Z,99592.75
2022-11-09T06:15:10.994Z,99611.19
2022-11-09T06:16:12.728Z,99607.09
2022-11-09T06:17:15.948Z,99599.38
2022-11-09T06:18:18.141Z,99601.53
2022-11-09T06:19:20.502Z,99598.84
2022-11-09T06:20:23.577Z,99598.84
2022-11-09T06:21:27.129Z,99575.28
2022-11-09T06:22:28.753Z,99594.91
2022-11-09T06:23:31.755Z,99616.34
2022-11-09T06:24:33.712Z,99584.31
2022-11-09T06:25:36.026Z,99584.13
2022-11-09T06:26:37.956Z,99628.50
2022-11-09T06:27:41.241Z,99599.22
2022-11-09T06:28:44.409Z,99615.25
2022-11-09T06:29:46.310Z,99606.53
2022-11-09T06:30:48.025Z,99600.53
2022-11-09T06:31:51.366Z,99609.09
2022-11-09T06:33:02.016Z,99602.94
2022-11-09T06:34:05.961Z,99618.81
2022-11-09T06:35:08.257Z,99604.38
2022-11-09T06:36:12.865Z,99601.00
2022-11-09T06:37:17.541Z,99603.56
2022-11-09T06:38:20.138Z,99603.72
2022-11-09T06:39:22.161Z,99588.69
2022-11-09T06:40:24.050Z,99610.72
2022-11-09T06:41:25.585Z,99601.19
2022-11-09T06:42:29.804Z,99596.16
2022-11-09T06:43:32.209Z,99611.44
2022-11-09T06:44:33.767Z,99600.47
2022-11-09T06:45:35.413Z,99577.59
2022-11-09T06:46:37.470Z,99611.47
2022-11-09T06:47:39.917Z,99615.41
2022-11-09T06:48:41.719Z,99597.41
2022-11-09T06:49:44.370Z,99615.47
2022-11-09T06:50:46.666Z,99619.81
2022-11-09T06:51:48.251Z,99627.75
2022-11-09T06:52:49.969Z,99634.53
2022-11-09T06:53:52.330Z,99630.22
2022-11-09T06:54:54.579Z,99627.59
2022-11-09T06:56:05.125Z,99627.50
2022-11-09T06:57:07.806Z,99639.78
2022-11-09T06:58:16.056Z,99613.88
2022-11-09T06:59:17.831Z,99626.50
2022-11-09T07:00:21.433Z,99630.13
2022-11-09T07:01:29.439Z,99630.81
2022-11-09T07:02:31.247Z,99609.56
2022-11-09T07:03:33.346Z,99635.13
2022-11-09T07:04:34.873Z,99584.38
2022-11-09T07:05:42.528Z,99632.50
2022-11-09T07:06:44.495Z,99629.13
2022-11-09T07:07:46.852Z,99637.59
2022-11-09T07:08:49.777Z,99624.81
2022-11-09T07:09:52.160Z,99631.59
2022-11-09T07:10:54.330Z,99625.66
2022-11-09T07:11:56.402Z,99628.28
2022-11-09T07:12:59.026Z,99622.50
2022-11-09T07:14:02.614Z,99616.19
2022-11-09T07:15:06.738Z,99624.22
2022-11-09T07:16:09.428Z,99619.56
2022-11-09T07:17:11.042Z,99629.06
2022-11-09T07:18:14.407Z,99625.59
2022-11-09T07:19:18.027Z,99589.47
2022-11-09T07:20:21.524Z,99596.00
2022-11-09T07:21:23.181Z,99583.03
2022-11-09T07:22:25.244Z,99641.94
2022-11-09T07:23:26.955Z,99619.34
2022-11-09T07:24:31.316Z,99618.47
2022-11-09T07:25:34.538Z,99617.38
2022-11-09T07:26:36.104Z,99620.72
2022-11-09T07:27:38.186Z,99600.56
2022-11-09T07:28:41.807Z,99605.66
2022-11-09T07:29:44.277Z,99575.84
2022-11-09T07:30:46.050Z,99611.97
2022-11-09T07:31:48.577Z,99604.72
2022-11-09T07:33:08.670Z,99616.91
2022-11-09T07:34:11.829Z,99573.44
2022-11-09T07:35:13.708Z,99590.84
2022-11-09T07:36:20.786Z,99593.41
2022-11-09T07:37:25.182Z,99565.38
2022-11-09T07:38:29.122Z,99574.66
2022-11-09T07:39:32.260Z,99608.47
2022-11-09T07:40:36.000Z,99604.06
2022-11-09T07:41:39.146Z,99587.03
2022-11-09T07:42:41.610Z,99609.25
2022-11-09T07:43:44.707Z,99594.66
2022-11-09T07:44:46.329Z,99591.13
2022-11-09T07:45:48.184Z,99589.94
2022-11-09T07:46:51.344Z,99575.19
2022-11-09T07:48:15.745Z,99589.78
2022-11-09T07:49:17.795Z,99564.28
2022-11-09T07:50:19.547Z,99579.78
2022-11-09T07:51:21.162Z,99558.94
2022-11-09T07:52:23.355Z,99589.69
2022-11-09T07:53:26.754Z,99541.34
2022-11-09T07:54:28.687Z,99590.47
2022-11-09T07:55:30.872Z,99565.03
2022-11-09T07:56:33.172Z,99567.09
2022-11-09T07:57:35.097Z,99586.66
2022-11-09T07:58:37.462Z,99540.84
2022-11-09T07:59:40.421Z,99606.63
2022-11-09T08:00:43.422Z,99588.97
2022-11-09T08:01:45.757Z,99582.34
2022-11-09T08:02:49.893Z,99589.47
2022-11-09T08:03:53.991Z,99597.34
2022-11-09T08:04:55.620Z,99595.72
2022-11-09T08:05:58.069Z,99585.38
2022-11-09T08:07:00.514Z,99576.16
2022-11-09T08:08:08.305Z,99591.31
2022-11-09T08:09:10.616Z,99568.19
2022-11-09T08:10:12.857Z,99599.88
2022-11-09T08:11:14.648Z,99593.50
2022-11-09T08:12:16.669Z,99592.50
2022-11-09T08:13:21.840Z,99600.81
2022-11-09T08:14:24.194Z,99598.19
2022-11-09T08:15:27.395Z,99603.34
2022-11-09T08:16:32.291Z,99604.19
2022-11-09T08:17:38.670Z,99608.31
2022-11-09T08:18:40.647Z,99589.72
2022-11-09T08:19:42.561Z,99613.47
2022-11-09T08:20:44.465Z,99603.44
2022-11-09T08:21:46.502Z,99574.22
2022-11-09T08:22:48.611Z,99608.50
2022-11-09T08:23:50.796Z,99598.75
2022-11-09T08:24:53.797Z,99556.94
2022-11-09T08:25:55.540Z,99610.19
2022-11-09T08:26:57.239Z,99597.06
2022-11-09T08:27:58.912Z,99601.72
2022-11-09T08:29:00.571Z,99625.84
2022-11-09T08:30:02.313Z,99576.84
2022-11-09T08:31:08.504Z,99603.44
2022-11-09T08:32:10.100Z,99616.09
2022-11-09T08:33:15.666Z,99602.31
2022-11-09T08:34:17.713Z,99603.84
2022-11-09T08:35:22.152Z,99619.59
2022-11-09T08:36:27.806Z,99581.34
2022-11-09T08:37:30.596Z,99597.06
2022-11-09T08:38:33.974Z,99608.88
2022-11-09T08:39:37.124Z,99619.56
2022-11-09T08:40:39.092Z,99621.72
2022-11-09T08:41:41.259Z,99596.34
2022-11-09T08:42:43.708Z,99620.13
2022-11-09T08:43:45.497Z,99611.97
2022-11-09T08:44:48.997Z,99625.38
2022-11-09T08:45:51.868Z,99614.19
2022-11-09T08:46:53.630Z,99598.94
2022-11-09T08:48:00.779Z,99619.53
2022-11-09T08:49:02.874Z,99615.81
2022-11-09T08:50:06.369Z,99619.78
2022-11-09T08:51:09.129Z,99600.31
2022-11-09T08:52:10.883Z,99631.19
2022-11-09T08:53:14.823Z,99605.38
2022-11-09T08:54:18.099Z,99611.50
2022-11-09T08:55:21.975Z,99610.56
2022-11-09T08:56:23.887Z,99608.91
2022-11-09T08:57:25.646Z,99624.91
2022-11-09T08:58:27.876Z,99599.75
2022-11-09T08:59:29.645Z,99596.00
2022-11-09T09:00:31.502Z,99578.72
2022-11-09T09:01:33.147Z,99607.31
2022-11-09T09:02:37.419Z,99634.31
2022-11-09T09:03:39.527Z,99617.16
2022-11-09T09:04:41.624Z,99629.97
2022-11-09T09:05:43.285Z,99637.13
2022-11-09T09:06:45.809Z,99628.09
2022-11-09T09:07:47.693Z,99627.41
2022-11-09T09:08:50.761Z,99619.03
2022-11-09T09:09:52.458Z,99634.63
2022-11-09T09:10:54.570Z,99610.88
2022-11-09T09:11:56.676Z,99590.09
2022-11-09T09:12:59.190Z,99640.91
2022-11-09T09:14:00.791Z,99611.00
2022-11-09T09:15:02.807Z,99615.44
2022-11-09T09:16:15.312Z,99601.00
2022-11-09T09:17:17.792Z,99632.66
2022-11-09T09:18:20.611Z,99620.78
2022-11-09T09:19:22.703Z,99593.38
2022-11-09T09:20:24.352Z,99607.09
2022-11-09T09:21:26.401Z,99624.22
2022-11-09T09:22:28.799Z,99599.69
2022-11-09T09:23:30.457Z,99633.91
2022-11-09T09:24:32.801Z,99620.06
2022-11-09T09:25:36.407Z,99631.84
2022-11-09T09:26:38.605Z,99623.78
2022-11-09T09:27:44.396Z,99634.88
2022-11-09T09:28:46.426Z,99634.56
2022-11-09T09:29:48.874Z,99600.84
2022-11-09T09:30:50.531Z,99629.31
2022-11-09T09:31:52.733Z,99618.56
2022-11-09T09:33:04.328Z,99624.63
2022-11-09T09:34:09.759Z,99622.31
2022-11-09T09:35:15.245Z,99647.38
2022-11-09T09:36:23.412Z,99603.47
2022-11-09T09:37:25.041Z,99611.63
2022-11-09T09:38:30.699Z,99643.22
2022-11-09T09:39:32.268Z,99600.66
2022-11-09T09:40:42.111Z,99628.09
2022-11-09T09:42:02.010Z,99640.44
2022-11-09T09:43:04.068Z,99647.41
2022-11-09T09:44:49.356Z,99639.22
2022-11-09T09:45:54.223Z,99643.56
2022-11-09T09:47:01.002Z,99625.53
2022-11-09T09:48:25.257Z,99645.09
2022-11-09T09:49:30.348Z,99616.97
2022-11-09T09:50:49.200Z,99648.78
2022-11-09T09:52:20.511Z,99621.03
2022-11-09T09:53:59.064Z,99648.38
2022-11-09T09:55:06.064Z,99644.38
2022-11-09T09:56:22.540Z,99639.94
2022-11-09T09:57:27.784Z,99619.59
2022-11-09T09:58:36.648Z,99642.34
2022-11-09T09:59:47.150Z,99625.78
2022-11-09T10:00:53.628Z,99606.38
2022-11-09T10:01:57.470Z,99639.94
2022-11-09T10:03:01.528Z,99610.59
2022-11-09T10:04:09.549Z,99629.50
2022-11-09T10:05:15.975Z,99616.38
2022-11-09T10:06:27.155Z,99650.44
2022-11-09T10:07:28.965Z,99649.13
2022-11-09T10:08:48.940Z,99647.75
2022-11-09T10:10:01.611Z,99638.47
2022-11-09T10:11:15.453Z,99625.31
2022-11-09T10:12:42.322Z,99654.09
2022-11-09T10:14:12.114Z,99652.97
2022-11-09T10:15:41.826Z,99629.25
2022-11-09T10:17:13.529Z,99647.59
2022-11-09T10:18:27.577Z,99645.16
2022-11-09T10:20:09.412Z,99646.63
2022-11-09T10:21:14.238Z,99644.31
2022-11-09T10:22:59.802Z,99633.38
2022-11-09T10:24:24.779Z,99647.59
2022-11-09T10:26:03.004Z,99674.50
2022-11-09T10:26:59.869Z,99638.06
2022-11-09T10:28:12.879Z,99632.84
2022-11-09T10:29:24.265Z,99589.88
2022-11-09T10:30:29.121Z,99638.03
2022-11-09T10:31:33.619Z,99639.25
2022-11-09T10:32:36.809Z,99648.59
2022-11-09T10:33:38.787Z,99639.22
2022-11-09T10:35:13.507Z,99646.09
2022-11-09T10:36:30.801Z,99639.38
2022-11-09T10:37:39.039Z,99644.13
2022-11-09T10:38:45.752Z,99639.41
2022-11-09T10:39:55.347Z,99662.03
2022-11-09T10:41:39.491Z,99615.06
2022-11-09T10:42:46.271Z,99618.63
2022-11-09T10:43:48.868Z,99595.72
2022-11-09T10:44:50.543Z,99594.09
2022-11-09T10:46:05.660Z,99591.84
2022-11-09T10:47:14.193Z,99630.06
2022-11-09T10:48:35.464Z,99638.41
2022-11-09T10:49:41.059Z,99614.13
2022-11-09T10:50:48.884Z,99632.34
2022-11-09T10:51:50.471Z,99611.38
2022-11-09T10:52:52.579Z,99639.63
2022-11-09T10:54:19.371Z,99640.09
2022-11-09T10:55:33.958Z,99639.88
2022-11-09T10:57:04.856Z,99644.13
2022-11-09T10:58:28.274Z,99619.69
2022-11-09T10:59:37.654Z,99586.72
2022-11-09T11:01:15.205Z,99635.34
2022-11-09T11:02:29.854Z,99640.41
2022-11-09T11:03:36.817Z,99644.91
2022-11-09T11:04:38.691Z,99607.03
2022-11-09T11:05:42.538Z,99627.53
2022-11-09T11:06:44.196Z,99633.00
2022-11-09T11:07:46.533Z,99624.06
2022-11-09T11:09:09.481Z,99629.25
2022-11-09T11:10:18.053Z,99610.34
2022-11-09T11:11:35.550Z,99627.16
2022-11-09T11:12:39.926Z,99612.81
2022-11-09T11:13:42.892Z,99620.50
2022-11-09T11:14:45.683Z,99556.47
2022-11-09T11:15:47.904Z,99615.97
2022-11-09T11:16:53.113Z,99585.94
2022-11-09T11:18:14.253Z,99619.47
2022-11-09T11:19:27.572Z,99623.00
2022-11-09T11:20:37.306Z,99619.69
2022-11-09T11:21:42.152Z,99606.47
2022-11-09T11:22:44.372Z,99568.47
2022-11-09T11:24:12.414Z,99615.88
2022-11-09T11:25:22.644Z,99614.94
2022-11-09T11:26:35.469Z,99605.72
2022-11-09T11:27:50.649Z,99625.47
2022-11-09T11:29:00.031Z,99594.03
2022-11-09T11:30:06.963Z,99613.94
2022-11-09T11:31:17.688Z,99618.38
2022-11-09T11:32:21.350Z,99577.16
2022-11-09T11:33:23.961Z,99612.84
2022-11-09T11:34:53.573Z,99613.72
2022-11-09T11:36:01.890Z,99619.22
2022-11-09T11:37:41.542Z,99615.25
2022-11-09T11:38:49.045Z,99586.22
2022-11-09T11:39:58.116Z,99626.34
2022-11-09T11:41:18.202Z,99623.94
2022-11-09T11:42:36.715Z,99634.41
2022-11-09T11:43:47.398Z,99626.81
2022-11-09T11:45:41.495Z,99625.38
2022-11-09T11:47:08.352Z,99631.06
2022-11-09T11:48:26.256Z,99624.06
2022-11-09T11:49:33.875Z,99624.53
2022-11-09T11:50:43.911Z,99627.56
2022-11-09T11:52:08.808Z,99628.41
2022-11-09T11:53:44.599Z,99616.44
2022-11-09T11:55:07.647Z,99631.69
2022-11-09T11:56:47.346Z,99626.75
2022-11-09T11:57:54.804Z,99623.72
2022-11-09T11:59:29.172Z,99630.38
2022-11-09T12:00:38.449Z,99615.28
2022-11-09T12:01:55.969Z,99632.13
2022-11-09T12:02:57.654Z,99624.19
2022-11-09T12:04:32.439Z,99620.78
2022-11-09T12:06:16.737Z,99606.75
2022-11-09T12:07:38.524Z,99625.47
2022-11-09T12:08:59.787Z,99615.41
2022-11-09T12:10:20.184Z,99627.78
2022-11-09T12:11:53.027Z,99621.94
2022-11-09T12:13:10.116Z,99633.50
2022-11-09T12:14:24.445Z,99611.72
2022-11-09T12:15:31.884Z,99625.41
2022-11-09T12:16:40.611Z,99592.81
2022-11-09T12:18:04.143Z,99606.63
2022-11-09T12:19:11.876Z,99620.94
2022-11-09T12:21:04.460Z,99617.06
2022-11-09T12:22:13.063Z,99620.94
2022-11-09T12:23:45.618Z,99626.34
2022-11-09T12:25:17.744Z,99625.16
2022-11-09T12:26:23.826Z,99616.47
2022-11-09T12:27:33.229Z,99613.78
2022-11-09T12:28:38.059Z,99618.75
2022-11-09T12:29:51.933Z,99606.94
2022-11-09T12:30:56.107Z,99623.13
2022-11-09T12:32:13.520Z,99621.81
2022-11-09T12:33:50.420Z,99625.66
2022-11-09T12:35:08.963Z,99621.28
2022-11-09T12:36:35.663Z,99624.88
2022-11-09T12:38:09.490Z,99584.31
2022-11-09T12:39:30.352Z,99630.41
2022-11-09T12:40:48.364Z,99611.16
2022-11-09T12:41:54.019Z,99606.88
2022-11-09T12:43:02.313Z,99585.06
2022-11-09T12:44:24.313Z,99621.94
2022-11-09T12:45:38.035Z,99615.22
2022-11-09T12:46:50.429Z,99623.41
2022-11-09T12:47:55.688Z,99608.97
2022-11-09T12:49:04.634Z,99615.25
2022-11-09T12:50:11.221Z,99628.94
2022-11-09T12:51:13.856Z,99590.31
2022-11-09T12:52:19.547Z,99611.50
2022-11-09T12:53:27.759Z,99637.38
2022-11-09T12:54:29.636Z,99634.16